Time;durP1;ratioP1;P1;durP2;ratioP2;P2;SDS_P1;SDS_P2;PMS_P1;PMS_P2;Temp;Humidity;BMP_temperature;BMP_pressure;BME280_temperature;BME280_humidity;BME280_pressure;Samples;Min_cycle;Max_cycle;Signal;HPM_P1;HPM_P2
2022/02/18 00:00:33;;;;;;;11.03;4.00;;;8.60;99.90;;;;;;5051972;28;20518;-69
2022/02/18 00:02:58;;;;;;;9.00;3.73;;;8.60;99.90;;;;;;5052779;28;20189;-69
2022/02/18 00:05:24;;;;;;;14.00;3.90;;;8.60;99.90;;;;;;5051208;28;20267;-69
2022/02/18 00:07:50;;;;;;;10.00;4.27;;;8.60;99.90;;;;;;5051980;28;20171;-68
2022/02/18 00:10:15;;;;;;;11.60;4.10;;;8.60;99.90;;;;;;5053469;28;20593;-68
2022/02/18 00:12:41;;;;;;;10.73;4.43;;;8.60;99.90;;;;;;5055584;28;20185;-68
2022/02/18 00:15:07;;;;;;;10.10;4.33;;;8.60;99.90;;;;;;5071440;28;20727;-68
2022/02/18 00:17:33;;;;;;;13.10;4.60;;;8.60;99.90;;;;;;5075467;28;20769;-69
2022/02/18 00:19:58;;;;;;;13.80;4.47;;;8.40;99.90;;;;;;5075678;28;20201;-68
2022/02/18 00:22:24;;;;;;;10.77;4.60;;;8.30;99.90;;;;;;5075469;28;20175;-68
2022/02/18 00:24:50;;;;;;;17.83;5.20;;;8.30;99.90;;;;;;5073472;28;20201;-68
2022/02/18 00:27:16;;;;;;;13.43;4.30;;;8.30;99.90;;;;;;5063446;28;20424;-69
2022/02/18 00:29:41;;;;;;;11.67;4.30;;;8.20;99.90;;;;;;5060766;28;20448;-68
2022/02/18 00:32:08;;;;;;;18.20;5.07;;;8.20;99.90;;;;;;5065964;28;20418;-69
2022/02/18 00:34:37;;;;;;;13.50;4.50;;;8.20;99.90;;;;;;5055795;28;20226;-68
2022/02/18 00:37:04;;;;;;;10.33;4.57;;;8.10;99.90;;;;;;5035676;28;20982;-69
2022/02/18 00:39:29;;;;;;;9.40;4.67;;;8.20;99.90;;;;;;5069897;28;20440;-69
2022/02/18 00:41:55;;;;;;;9.87;3.70;;;8.20;99.90;;;;;;5075521;28;20896;-68
2022/02/18 00:44:20;;;;;;;15.53;6.17;;;8.10;99.90;;;;;;5075342;28;20179;-68
2022/02/18 00:46:46;;;;;;;18.00;4.57;;;8.10;99.90;;;;;;5075484;28;20181;-69
2022/02/18 00:49:11;;;;;;;11.63;3.73;;;8.00;99.90;;;;;;5073694;28;20204;-69
2022/02/18 00:51:37;;;;;;;15.90;4.50;;;8.10;99.90;;;;;;5075264;28;20294;-68
2022/02/18 00:54:03;;;;;;;10.93;5.17;;;8.10;99.90;;;;;;5075681;28;20200;-68
2022/02/18 00:56:28;;;;;;;15.83;4.70;;;8.00;99.90;;;;;;5075373;28;20253;-68
2022/02/18 00:58:54;;;;;;;16.20;3.77;;;8.10;99.90;;;;;;5073295;28;20203;-68
2022/02/18 01:01:19;;;;;;;12.80;4.50;;;8.10;99.90;;;;;;5075256;28;20258;-68
2022/02/18 01:03:46;;;;;;;16.10;4.23;;;8.10;99.90;;;;;;5056747;28;20176;-68
2022/02/18 01:06:11;;;;;;;13.17;3.57;;;8.10;99.90;;;;;;5074873;28;20204;-68
2022/02/18 01:08:37;;;;;;;12.77;4.57;;;8.10;99.90;;;;;;5073096;28;20871;-68
2022/02/18 01:11:03;;;;;;;14.40;4.53;;;8.10;99.90;;;;;;5075024;28;20165;-68
2022/02/18 01:13:28;;;;;;;12.33;3.70;;;8.10;99.90;;;;;;5074549;28;20212;-69
2022/02/18 01:15:55;;;;;;;15.73;5.20;;;8.10;99.90;;;;;;5075328;28;20482;-69
2022/02/18 01:18:21;;;;;;;14.30;4.47;;;8.10;99.90;;;;;;5055350;28;20203;-68
2022/02/18 01:20:47;;;;;;;10.50;3.60;;;8.10;99.90;;;;;;5073805;28;20415;-69
2022/02/18 01:23:13;;;;;;;13.47;3.67;;;8.10;99.90;;;;;;5074674;28;20442;-69
2022/02/18 01:25:38;;;;;;;13.63;3.90;;;8.10;99.90;;;;;;5074966;28;20405;-68
2022/02/18 01:28:05;;;;;;;14.53;4.47;;;8.10;99.90;;;;;;5057145;28;20184;-68
2022/02/18 01:30:32;;;;;;;16.57;4.47;;;8.10;99.90;;;;;;5074538;28;20295;-69
2022/02/18 01:32:58;;;;;;;12.83;4.90;;;8.10;99.90;;;;;;5076512;28;20408;-69
2022/02/18 01:35:24;;;;;;;11.47;3.83;;;8.10;99.90;;;;;;5082419;28;20436;-69
2022/02/18 01:37:51;;;;;;;14.70;4.23;;;8.10;99.90;;;;;;5090663;28;20210;-69
2022/02/18 01:40:17;;;;;;;13.03;4.57;;;8.10;99.90;;;;;;5066713;28;20177;-70
2022/02/18 01:42:43;;;;;;;11.83;4.70;;;8.10;99.90;;;;;;5079929;28;20423;-69
2022/02/18 01:45:09;;;;;;;11.60;4.23;;;8.10;99.90;;;;;;5088729;28;20416;-69
2022/02/18 01:47:35;;;;;;;14.87;4.47;;;8.10;99.90;;;;;;5089492;28;20181;-69
2022/02/18 01:50:01;;;;;;;11.70;4.00;;;8.10;99.90;;;;;;5085331;28;20465;-68
2022/02/18 01:52:33;;;;;;;9.53;4.20;;;8.10;99.90;;;;;;5068517;28;20192;-68
2022/02/18 01:54:59;;;;;;;15.00;5.37;;;8.10;99.90;;;;;;5068679;28;20642;-69
2022/02/18 01:57:25;;;;;;;16.63;5.17;;;8.10;99.90;;;;;;5069338;28;20438;-69
2022/02/18 01:59:51;;;;;;;13.80;3.67;;;8.10;99.90;;;;;;5052798;28;20462;-68
2022/02/18 02:02:17;;;;;;;11.73;3.60;;;8.10;99.90;;;;;;5074343;28;20436;-69
2022/02/18 02:04:45;;;;;;;12.20;3.90;;;8.20;99.90;;;;;;5072245;28;20178;-69
2022/02/18 02:07:11;;;;;;;13.43;4.10;;;8.10;99.90;;;;;;5071392;28;20170;-69
2022/02/18 02:09:37;;;;;;;12.13;4.97;;;8.20;99.90;;;;;;5066345;28;20464;-68
2022/02/18 02:12:03;;;;;;;12.13;4.30;;;8.10;99.90;;;;;;5086347;28;20431;-67
2022/02/18 02:14:30;;;;;;;10.00;4.40;;;8.10;99.90;;;;;;5078240;28;20777;-68
2022/02/18 02:16:55;;;;;;;12.90;4.33;;;8.20;99.90;;;;;;5068439;28;20956;-69
2022/02/18 02:19:21;;;;;;;8.60;4.23;;;8.10;99.90;;;;;;5059271;28;20423;-69
2022/02/18 02:21:50;;;;;;;11.20;4.07;;;8.20;99.90;;;;;;5056570;28;20187;-68
2022/02/18 02:24:17;;;;;;;10.90;3.80;;;8.30;99.90;;;;;;5054865;28;20202;-68
2022/02/18 02:26:42;;;;;;;10.50;3.33;;;8.30;99.90;;;;;;5054827;28;20417;-68
2022/02/18 02:29:11;;;;;;;12.77;3.67;;;8.20;99.90;;;;;;5033642;28;20437;-68
2022/02/18 02:31:37;;;;;;;17.27;4.13;;;8.20;99.90;;;;;;5034749;28;20205;-69
2022/02/18 02:34:03;;;;;;;11.17;3.50;;;8.30;99.90;;;;;;5061787;28;20957;-68
2022/02/18 02:36:29;;;;;;;13.23;3.60;;;8.30;99.90;;;;;;5053237;28;20166;-69
2022/02/18 02:38:54;;;;;;;17.40;5.13;;;8.30;99.90;;;;;;5053847;28;20952;-71
2022/02/18 02:41:20;;;;;;;9.63;3.50;;;8.30;99.90;;;;;;5054081;28;20185;-70
2022/02/18 02:43:46;;;;;;;9.77;3.17;;;8.40;99.90;;;;;;5052597;28;20212;-70
2022/02/18 02:46:11;;;;;;;11.50;3.63;;;8.40;99.90;;;;;;5063584;28;20178;-70
2022/02/18 02:48:37;;;;;;;14.50;4.70;;;8.50;99.90;;;;;;5071834;28;20978;-70
2022/02/18 02:51:04;;;;;;;14.70;3.90;;;8.40;99.90;;;;;;5072908;28;20408;-70
2022/02/18 02:53:30;;;;;;;20.97;4.00;;;8.50;99.90;;;;;;5072832;28;20166;-70
2022/02/18 02:55:55;;;;;;;15.13;4.17;;;8.40;99.90;;;;;;5071400;28;20520;-70
2022/02/18 02:58:21;;;;;;;14.40;4.50;;;8.50;99.90;;;;;;5072559;28;20455;-70
2022/02/18 03:00:46;;;;;;;11.37;3.53;;;8.50;99.90;;;;;;5072722;28;20211;-70
2022/02/18 03:03:12;;;;;;;12.20;4.00;;;8.50;99.90;;;;;;5072435;28;20170;-70
2022/02/18 03:05:37;;;;;;;18.43;4.30;;;8.50;99.90;;;;;;5072804;28;20177;-70
2022/02/18 03:08:03;;;;;;;10.50;3.90;;;8.50;99.90;;;;;;5070971;28;20182;-70
2022/02/18 03:10:29;;;;;;;13.27;4.67;;;8.40;99.90;;;;;;5072851;28;20176;-71
2022/02/18 03:12:55;;;;;;;10.07;4.03;;;8.50;99.90;;;;;;5072063;28;20410;-71
2022/02/18 03:15:20;;;;;;;10.90;5.23;;;8.50;99.90;;;;;;5072368;28;20236;-70
2022/02/18 03:17:46;;;;;;;16.13;4.77;;;8.50;99.90;;;;;;5070809;28;20224;-71
2022/02/18 03:20:12;;;;;;;16.17;4.87;;;8.60;99.90;;;;;;5072700;28;20246;-70
2022/02/18 03:22:38;;;;;;;15.37;4.87;;;8.60;99.90;;;;;;5054471;28;20359;-71
2022/02/18 03:25:04;;;;;;;10.03;3.90;;;8.70;99.90;;;;;;5072845;28;20515;-71
2022/02/18 03:27:29;;;;;;;19.03;5.17;;;8.70;99.90;;;;;;5071863;28;21095;-71
2022/02/18 03:29:55;;;;;;;13.00;4.30;;;8.70;99.90;;;;;;5052566;28;20444;-70
2022/02/18 03:32:21;;;;;;;15.17;4.13;;;8.70;99.90;;;;;;5051605;28;20209;-71
2022/02/18 03:34:46;;;;;;;14.83;4.77;;;8.60;99.90;;;;;;5052472;28;20297;-70
2022/02/18 03:37:12;;;;;;;12.43;4.20;;;8.60;99.90;;;;;;5052666;28;20179;-70
2022/02/18 03:39:38;;;;;;;15.33;4.30;;;8.60;99.90;;;;;;5053232;28;20208;-71
2022/02/18 03:42:04;;;;;;;11.50;4.37;;;8.60;99.90;;;;;;5052111;28;20401;-71
2022/02/18 03:44:30;;;;;;;15.53;4.90;;;8.60;99.90;;;;;;5053784;28;20209;-70
2022/02/18 03:46:55;;;;;;;15.43;4.20;;;8.60;99.90;;;;;;5057084;28;20432;-71
2022/02/18 03:49:21;;;;;;;10.73;4.07;;;8.60;99.90;;;;;;5058006;28;20196;-71
2022/02/18 03:51:46;;;;;;;13.00;3.93;;;8.60;99.90;;;;;;5057020;28;20180;-71
2022/02/18 03:54:11;;;;;;;18.07;4.27;;;8.60;99.90;;;;;;5056367;28;20201;-71
2022/02/18 03:56:37;;;;;;;15.90;4.93;;;8.70;99.90;;;;;;5056656;28;20174;-71
2022/02/18 03:59:03;;;;;;;12.33;4.53;;;8.70;99.90;;;;;;5056375;28;20690;-71
2022/02/18 04:01:28;;;;;;;14.77;4.90;;;8.60;99.90;;;;;;5056919;28;20267;-70
2022/02/18 04:03:54;;;;;;;11.03;4.17;;;8.70;99.90;;;;;;5055851;28;20261;-70
2022/02/18 04:06:19;;;;;;;13.33;3.80;;;8.70;99.90;;;;;;5056514;28;20171;-70
2022/02/18 04:08:45;;;;;;;16.10;4.70;;;8.60;99.90;;;;;;5057092;28;20190;-70
2022/02/18 04:11:10;;;;;;;10.50;4.20;;;8.60;99.90;;;;;;5057812;28;20255;-70
2022/02/18 04:13:36;;;;;;;14.43;4.10;;;8.60;99.90;;;;;;5055579;28;20576;-70
2022/02/18 04:16:02;;;;;;;10.80;3.40;;;8.60;99.90;;;;;;5056094;28;20249;-70
2022/02/18 04:18:27;;;;;;;16.40;4.60;;;8.60;99.90;;;;;;5055794;28;20330;-70
2022/02/18 04:20:53;;;;;;;14.20;4.30;;;8.60;99.90;;;;;;5057046;28;20643;-70
2022/02/18 04:23:18;;;;;;;11.93;4.83;;;8.60;99.90;;;;;;5055701;28;20608;-70
2022/02/18 04:25:44;;;;;;;12.20;3.63;;;8.60;99.90;;;;;;5055995;28;20182;-70
2022/02/18 04:28:09;;;;;;;12.30;4.27;;;8.60;99.90;;;;;;5055444;28;20711;-70
2022/02/18 04:30:35;;;;;;;12.63;4.40;;;8.60;99.90;;;;;;5048381;28;20191;-70
2022/02/18 04:33:00;;;;;;;7.90;3.73;;;8.60;99.90;;;;;;5063378;28;20193;-70
2022/02/18 04:35:26;;;;;;;9.57;4.20;;;8.70;99.90;;;;;;5055530;28;20574;-70
2022/02/18 04:37:52;;;;;;;11.23;4.10;;;8.60;99.90;;;;;;5058851;28;20191;-70
2022/02/18 04:40:18;;;;;;;9.87;3.83;;;8.60;99.90;;;;;;5075611;28;20180;-70
2022/02/18 04:42:45;;;;;;;10.73;4.03;;;8.60;99.90;;;;;;5075422;28;20193;-69
2022/02/18 04:45:11;;;;;;;18.43;4.60;;;8.60;99.90;;;;;;5075460;28;20430;-70
2022/02/18 04:47:37;;;;;;;13.20;4.60;;;8.70;99.90;;;;;;5074576;28;20416;-70
2022/02/18 04:50:04;;;;;;;9.97;3.73;;;8.70;99.90;;;;;;5074125;28;20461;-70
2022/02/18 04:52:30;;;;;;;12.20;4.10;;;8.70;99.90;;;;;;5075652;28;20183;-69
2022/02/18 04:54:56;;;;;;;10.43;3.23;;;8.60;99.90;;;;;;5075621;28;20461;-69
2022/02/18 04:57:21;;;;;;;16.03;3.60;;;8.70;99.90;;;;;;5074403;28;20912;-69
2022/02/18 04:59:47;;;;;;;11.53;3.33;;;8.70;99.90;;;;;;5077903;28;20727;-68
2022/02/18 05:02:14;;;;;;;14.83;4.30;;;8.70;99.90;;;;;;5077569;28;20261;-69
2022/02/18 05:04:40;;;;;;;12.30;3.80;;;8.70;99.90;;;;;;5075831;28;20184;-68
2022/02/18 05:07:06;;;;;;;13.63;4.00;;;8.70;99.90;;;;;;5058128;28;20416;-67
2022/02/18 05:09:31;;;;;;;7.07;3.30;;;8.60;99.90;;;;;;5073826;28;20567;-68
2022/02/18 05:11:57;;;;;;;7.40;3.20;;;8.60;99.90;;;;;;5075518;28;20404;-69
2022/02/18 05:14:22;;;;;;;8.90;3.30;;;8.60;99.90;;;;;;5075642;28;20661;-68
2022/02/18 05:16:48;;;;;;;13.80;3.23;;;8.60;99.90;;;;;;5074731;28;20256;-68
2022/02/18 05:19:13;;;;;;;5.20;3.00;;;8.60;99.90;;;;;;5075815;28;20272;-68
2022/02/18 05:21:39;;;;;;;14.97;4.00;;;8.60;99.90;;;;;;5073289;28;20181;-68
2022/02/18 05:24:06;;;;;;;12.47;3.87;;;8.60;99.90;;;;;;5074817;28;20244;-68
2022/02/18 05:26:32;;;;;;;7.80;2.73;;;8.60;99.90;;;;;;5074722;28;20418;-68
2022/02/18 05:28:58;;;;;;;11.00;4.53;;;8.70;99.90;;;;;;5074837;28;20427;-69
2022/02/18 05:31:23;;;;;;;8.30;3.77;;;8.70;99.90;;;;;;5063783;28;20513;-69
2022/02/18 05:33:49;;;;;;;8.03;2.77;;;8.70;99.90;;;;;;5053465;28;20202;-68
2022/02/18 05:36:15;;;;;;;9.73;3.00;;;8.70;99.90;;;;;;5047901;28;20290;-68
2022/02/18 05:38:43;;;;;;;7.93;3.00;;;8.70;99.90;;;;;;5041635;28;20697;-68
2022/02/18 05:41:10;;;;;;;11.63;3.83;;;8.80;99.90;;;;;;5047829;28;20188;-66
2022/02/18 05:43:36;;;;;;;7.73;3.20;;;8.80;99.90;;;;;;5053218;28;20444;-68
2022/02/18 05:46:01;;;;;;;15.03;3.83;;;8.80;99.90;;;;;;5050496;28;20520;-68
2022/02/18 05:48:27;;;;;;;8.33;3.37;;;8.80;99.90;;;;;;5050098;28;21037;-69
2022/02/18 05:50:53;;;;;;;9.50;3.03;;;8.70;99.90;;;;;;5049050;28;20264;-67
2022/02/18 05:53:18;;;;;;;11.47;3.03;;;8.70;99.90;;;;;;5052584;28;20825;-69
2022/02/18 05:55:44;;;;;;;11.70;3.13;;;8.70;99.90;;;;;;5054529;28;20191;-69
2022/02/18 05:58:09;;;;;;;16.33;3.70;;;8.70;99.90;;;;;;5054243;28;20171;-69
2022/02/18 06:00:35;;;;;;;11.40;2.90;;;8.70;99.90;;;;;;5053878;28;20174;-68
2022/02/18 06:03:00;;;;;;;7.13;3.10;;;8.70;99.90;;;;;;5051602;28;20216;-69
2022/02/18 06:05:26;;;;;;;15.47;3.77;;;8.80;99.90;;;;;;5054776;28;20196;-69
2022/02/18 06:07:51;;;;;;;8.33;2.97;;;8.70;99.90;;;;;;5053430;28;20179;-69
2022/02/18 06:10:17;;;;;;;9.33;3.70;;;8.80;99.90;;;;;;5046449;28;20190;-68
2022/02/18 06:12:42;;;;;;;6.57;2.60;;;8.70;99.90;;;;;;5050491;28;20654;-69
2022/02/18 06:15:08;;;;;;;7.27;3.10;;;8.70;99.90;;;;;;5037521;28;20264;-68
2022/02/18 06:17:37;;;;;;;16.03;5.10;;;8.70;99.90;;;;;;5053290;28;20179;-68
2022/02/18 06:20:03;;;;;;;12.43;4.00;;;8.70;99.90;;;;;;5048333;28;20190;-69
2022/02/18 06:22:29;;;;;;;8.30;3.60;;;8.70;99.90;;;;;;5048320;22;20554;-69
2022/02/18 06:24:54;;;;;;;7.20;2.50;;;8.70;99.90;;;;;;5048461;28;20886;-69
2022/02/18 06:27:20;;;;;;;7.00;2.63;;;8.70;99.90;;;;;;5051712;28;20415;-68
2022/02/18 06:29:49;;;;;;;14.33;3.30;;;8.70;99.90;;;;;;5044285;28;20193;-70
2022/02/18 06:32:14;;;;;;;7.30;3.03;;;8.70;99.90;;;;;;5026579;28;20200;-69
2022/02/18 06:34:40;;;;;;;13.43;3.27;;;8.60;99.90;;;;;;5041138;28;20492;-70
2022/02/18 06:37:06;;;;;;;12.93;4.33;;;8.60;99.90;;;;;;5047819;28;20210;-70
2022/02/18 06:39:35;;;;;;;9.07;3.00;;;8.60;99.90;;;;;;5047252;28;20296;-70
2022/02/18 06:42:01;;;;;;;10.70;3.53;;;8.60;99.90;;;;;;5047677;28;20220;-69
2022/02/18 06:44:27;;;;;;;14.90;3.17;;;8.60;99.90;;;;;;5046419;28;20487;-70
2022/02/18 06:46:52;;;;;;;7.00;3.27;;;8.60;99.90;;;;;;5047307;28;20210;-69
2022/02/18 06:49:18;;;;;;;10.80;2.90;;;8.60;99.90;;;;;;5047583;28;20255;-69
2022/02/18 06:51:43;;;;;;;9.60;3.87;;;8.60;99.90;;;;;;5035518;28;20236;-69
2022/02/18 06:54:09;;;;;;;10.93;3.43;;;8.60;99.90;;;;;;5047470;28;20222;-70
2022/02/18 06:56:34;;;;;;;8.83;3.87;;;8.50;99.90;;;;;;5047868;28;20197;-69
2022/02/18 06:59:00;;;;;;;13.83;3.93;;;8.60;99.90;;;;;;5046193;28;20223;-69
2022/02/18 07:01:26;;;;;;;13.70;5.23;;;8.60;99.90;;;;;;5047242;28;20204;-68
2022/02/18 07:03:52;;;;;;;8.63;3.30;;;8.60;99.90;;;;;;5044690;28;20234;-70
2022/02/18 07:06:17;;;;;;;11.47;3.30;;;8.60;99.90;;;;;;5042010;28;20882;-68
2022/02/18 07:08:43;;;;;;;9.23;3.73;;;8.60;99.90;;;;;;5048307;28;20226;-69
2022/02/18 07:11:08;;;;;;;9.57;3.30;;;8.60;99.90;;;;;;5042378;28;20205;-69
2022/02/18 07:13:34;;;;;;;13.20;4.17;;;8.60;99.90;;;;;;5047595;28;20251;-68
2022/02/18 07:15:59;;;;;;;10.90;3.40;;;8.60;99.90;;;;;;5048964;28;20209;-69
2022/02/18 07:18:25;;;;;;;13.03;3.80;;;8.60;99.90;;;;;;5048278;28;20745;-69
2022/02/18 07:20:51;;;;;;;7.70;3.40;;;8.70;99.90;;;;;;5031280;28;20671;-71
2022/02/18 07:23:17;;;;;;;12.30;3.83;;;8.70;99.90;;;;;;5049953;28;20455;-70
2022/02/18 07:25:44;;;;;;;7.20;3.00;;;8.70;99.90;;;;;;5050867;28;20428;-70
2022/02/18 07:28:09;;;;;;;11.60;3.87;;;8.70;99.90;;;;;;5051465;28;20212;-70
2022/02/18 07:30:35;;;;;;;10.33;4.33;;;8.70;99.90;;;;;;5050314;28;21245;-70
2022/02/18 07:33:00;;;;;;;16.43;3.90;;;8.70;99.90;;;;;;5050574;28;20674;-70
2022/02/18 07:35:32;;;;;;;8.67;4.00;;;8.70;99.90;;;;;;5050077;28;20280;-69
2022/02/18 07:37:59;;;;;;;12.63;3.60;;;8.70;99.90;;;;;;5053119;28;20311;-70
2022/02/18 07:40:25;;;;;;;12.47;3.80;;;8.70;99.90;;;;;;5050467;28;20871;-69
2022/02/18 07:42:50;;;;;;;8.87;4.13;;;8.70;99.90;;;;;;5050717;28;20515;-69
2022/02/18 07:45:16;;;;;;;14.50;3.50;;;8.70;99.90;;;;;;5062787;28;20229;-69
2022/02/18 07:47:41;;;;;;;15.90;4.57;;;8.70;99.90;;;;;;5065741;28;20221;-69
2022/02/18 07:50:07;;;;;;;10.67;3.77;;;8.70;99.90;;;;;;5066212;28;20216;-68
2022/02/18 07:52:34;;;;;;;12.90;3.90;;;8.70;99.90;;;;;;5066015;28;20204;-69
2022/02/18 07:55:00;;;;;;;9.53;3.80;;;8.70;99.90;;;;;;5067717;28;20467;-69
2022/02/18 07:57:25;;;;;;;11.50;3.63;;;8.70;99.90;;;;;;5068450;28;20451;-67
2022/02/18 07:59:52;;;;;;;12.20;4.40;;;8.70;99.90;;;;;;5068549;28;20213;-69
2022/02/18 08:02:18;;;;;;;13.10;3.80;;;8.70;99.90;;;;;;5069414;28;20208;-69
2022/02/18 08:04:43;;;;;;;8.87;3.10;;;8.70;99.90;;;;;;5069126;28;20450;-68
2022/02/18 08:07:09;;;;;;;12.27;3.77;;;8.70;99.90;;;;;;5069906;28;20414;-70
2022/02/18 08:09:35;;;;;;;8.40;3.57;;;8.70;99.90;;;;;;5053752;28;20408;-69
2022/02/18 08:12:01;;;;;;;10.10;4.23;;;8.80;99.90;;;;;;5051480;28;20999;-70
2022/02/18 08:14:27;;;;;;;8.80;3.73;;;8.80;99.90;;;;;;5051469;28;20228;-69
2022/02/18 08:16:52;;;;;;;7.83;3.40;;;8.80;99.90;;;;;;5051902;28;20417;-70
2022/02/18 08:19:20;;;;;;;15.43;4.57;;;8.80;99.90;;;;;;5051401;28;20170;-71
2022/02/18 08:21:47;;;;;;;16.20;4.20;;;8.90;99.90;;;;;;5051205;28;20225;-70
2022/02/18 08:24:17;;;;;;;12.17;4.30;;;8.90;99.90;;;;;;5051909;28;20416;-70
2022/02/18 08:26:44;;;;;;;8.37;3.27;;;8.90;99.90;;;;;;5051469;28;20396;-71
2022/02/18 08:29:10;;;;;;;8.83;3.80;;;8.90;99.90;;;;;;5053461;28;21020;-70
2022/02/18 08:31:35;;;;;;;13.10;4.67;;;8.90;99.90;;;;;;5056396;28;20459;-70
2022/02/18 08:34:01;;;;;;;11.73;5.03;;;9.00;99.90;;;;;;5059005;28;20181;-71
2022/02/18 08:36:26;;;;;;;15.73;4.13;;;9.00;99.90;;;;;;5058762;28;20177;-69
2022/02/18 08:38:52;;;;;;;8.97;3.50;;;9.00;99.90;;;;;;5056938;28;20284;-70
2022/02/18 08:41:17;;;;;;;14.47;3.77;;;9.00;99.90;;;;;;5052342;28;20243;-70
2022/02/18 08:43:43;;;;;;;10.30;3.93;;;9.10;99.90;;;;;;5053631;28;20279;-70
2022/02/18 08:46:08;;;;;;;6.93;3.30;;;9.00;99.90;;;;;;5055278;28;20200;-69
2022/02/18 08:48:34;;;;;;;9.93;3.60;;;9.10;99.90;;;;;;5055434;28;20192;-69
2022/02/18 08:51:00;;;;;;;7.10;3.13;;;9.20;99.90;;;;;;5055212;28;20638;-70
2022/02/18 08:53:25;;;;;;;5.57;3.10;;;9.20;99.90;;;;;;5055440;28;20658;-70
2022/02/18 08:55:51;;;;;;;12.07;3.50;;;9.20;99.90;;;;;;5056298;28;20343;-69
2022/02/18 08:58:17;;;;;;;13.37;3.30;;;9.20;99.90;;;;;;5054114;28;20178;-70
2022/02/18 09:00:42;;;;;;;11.97;3.20;;;9.20;99.90;;;;;;5054697;28;20921;-69
2022/02/18 09:03:10;;;;;;;12.33;3.63;;;9.20;99.90;;;;;;5053752;28;20199;-70
2022/02/18 09:05:35;;;;;;;14.97;4.47;;;9.30;99.90;;;;;;5054526;28;20178;-70
2022/02/18 09:08:01;;;;;;;8.00;3.60;;;9.30;99.90;;;;;;5055042;28;20838;-70
2022/02/18 09:10:26;;;;;;;9.23;3.60;;;9.30;99.90;;;;;;5055394;28;20178;-69
2022/02/18 09:12:52;;;;;;;8.97;2.80;;;9.30;99.90;;;;;;5054211;28;20208;-71
2022/02/18 09:15:19;;;;;;;9.60;2.97;;;9.40;99.90;;;;;;5054648;28;20225;-70
2022/02/18 09:17:45;;;;;;;10.67;3.00;;;9.40;99.90;;;;;;5054635;28;20188;-69
2022/02/18 09:20:10;;;;;;;8.47;3.77;;;9.40;99.90;;;;;;5057002;28;20404;-70
2022/02/18 09:22:36;;;;;;;7.10;2.70;;;9.50;99.90;;;;;;5055278;28;20254;-68
2022/02/18 09:25:02;;;;;;;10.60;2.40;;;9.50;99.90;;;;;;5061009;28;20572;-70
2022/02/18 09:27:28;;;;;;;7.03;2.97;;;9.60;99.90;;;;;;5068984;28;20170;-68
2022/02/18 09:29:53;;;;;;;8.20;2.60;;;9.60;99.90;;;;;;5077602;28;20416;-69
2022/02/18 09:32:20;;;;;;;5.10;2.63;;;9.70;99.90;;;;;;5077333;28;20190;-68
2022/02/18 09:34:45;;;;;;;4.80;2.50;;;9.80;99.90;;;;;;5078723;28;20181;-69
2022/02/18 09:37:15;;;;;;;10.27;2.03;;;9.80;99.90;;;;;;5077182;28;20500;-69
2022/02/18 09:39:43;;;;;;;10.13;2.83;;;9.80;99.90;;;;;;5078490;28;20192;-68
2022/02/18 09:42:17;;;;;;;5.30;2.53;;;9.90;99.90;;;;;;5060238;28;20511;-66
2022/02/18 09:44:43;;;;;;;5.50;2.37;;;10.00;99.90;;;;;;5079122;28;20412;-69
2022/02/18 09:47:12;;;;;;;7.50;3.00;;;10.00;99.90;;;;;;5078169;28;20464;-67
2022/02/18 09:49:40;;;;;;;5.37;2.47;;;9.90;99.90;;;;;;5067788;28;20424;-68
2022/02/18 09:52:08;;;;;;;8.97;2.47;;;10.00;99.90;;;;;;5036501;28;20515;-69
2022/02/18 09:54:33;;;;;;;6.23;2.40;;;10.00;99.90;;;;;;5051294;28;20452;-70
2022/02/18 09:57:00;;;;;;;4.97;2.73;;;10.00;99.90;;;;;;5052698;28;20432;-70
2022/02/18 09:59:28;;;;;;;6.95;2.70;;;10.00;99.90;;;;;;5052495;28;20896;-70
2022/02/18 10:01:54;;;;;;;2.90;1.87;;;10.10;99.90;;;;;;5051580;28;20190;-68
2022/02/18 10:04:20;;;;;;;6.10;2.30;;;10.10;99.90;;;;;;5052623;28;20417;-69
2022/02/18 10:06:46;;;;;;;3.87;1.90;;;10.10;99.90;;;;;;5051174;28;20649;-69
2022/02/18 10:09:11;;;;;;;4.50;2.60;;;10.20;99.90;;;;;;5052691;28;20685;-70
2022/02/18 10:11:51;;;;;;;9.73;3.07;;;10.20;99.90;;;;;;5052270;28;20456;-70
2022/02/18 10:14:17;;;;;;;7.27;1.97;;;10.20;99.90;;;;;;5052435;28;20169;-70
2022/02/18 10:16:43;;;;;;;7.10;2.40;;;10.20;99.90;;;;;;5052367;28;20448;-70
2022/02/18 10:19:10;;;;;;;2.83;1.60;;;10.30;99.90;;;;;;5052444;28;20412;-71
2022/02/18 10:21:37;;;;;;;5.53;2.13;;;10.30;99.90;;;;;;5051856;28;20491;-69
2022/02/18 10:24:12;;;;;;;2.50;1.43;;;10.30;99.90;;;;;;5052777;28;20419;-70
2022/02/18 10:26:44;;;;;;;3.30;1.53;;;10.30;99.90;;;;;;5053047;28;20420;-71
2022/02/18 10:29:23;;;;;;;4.30;1.93;;;10.30;99.90;;;;;;5052729;28;20956;-71
2022/02/18 10:32:14;;;;;;;5.17;1.80;;;10.30;99.90;;;;;;5053109;28;20487;-73
2022/02/18 10:34:58;;;;;;;3.23;2.23;;;10.40;99.90;;;;;;5071139;28;20508;-69
2022/02/18 10:37:27;;;;;;;3.63;1.87;;;10.40;99.90;;;;;;5076826;28;20433;-67
2022/02/18 10:40:14;;;;;;;3.83;1.50;;;10.40;99.90;;;;;;5070972;28;20425;-69
2022/02/18 10:42:41;;;;;;;4.77;1.60;;;10.50;99.90;;;;;;5070821;28;20503;-67
2022/02/18 10:45:16;;;;;;;4.67;1.80;;;10.50;99.90;;;;;;5077275;28;20420;-68
2022/02/18 10:47:43;;;;;;;4.50;1.40;;;10.50;99.90;;;;;;5077840;28;20396;-68
2022/02/18 10:50:26;;;;;;;3.00;1.73;;;10.50;99.90;;;;;;5077895;28;20432;-65
2022/02/18 10:53:15;;;;;;;4.13;1.77;;;10.50;99.90;;;;;;5077449;28;20460;-69
2022/02/18 10:56:08;;;;;;;4.80;1.70;;;10.60;99.90;;;;;;5052030;28;20463;-71
2022/02/18 10:58:47;;;;;;;4.00;1.77;;;10.60;99.90;;;;;;5048486;28;20470;-71
2022/02/18 11:01:24;;;;;;;1.70;1.57;;;10.80;99.90;;;;;;5051939;28;20547;-71
2022/02/18 11:03:51;;;;;;;2.67;1.73;;;10.90;99.90;;;;;;5050968;28;20461;-69
2022/02/18 11:06:23;;;;;;;4.97;1.60;;;11.00;99.90;;;;;;5051855;28;20989;-69
2022/02/18 11:09:04;;;;;;;2.30;1.43;;;11.00;99.90;;;;;;5043578;28;20409;-69
2022/02/18 11:11:45;;;;;;;5.77;1.77;;;11.00;99.90;;;;;;5047078;28;20463;-68
2022/02/18 11:14:16;;;;;;;1.97;1.20;;;11.00;99.90;;;;;;5051435;28;20888;-69
2022/02/18 11:16:52;;;;;;;1.80;1.67;;;11.00;99.90;;;;;;5052340;28;20446;-69
2022/02/18 11:19:19;;;;;;;3.10;1.40;;;10.90;99.90;;;;;;5050651;28;20405;-70
2022/02/18 11:21:45;;;;;;;3.37;2.03;;;11.00;99.90;;;;;;5048957;28;20973;-69
2022/02/18 11:24:14;;;;;;;4.30;1.57;;;11.00;99.90;;;;;;5050693;28;20417;-69
2022/02/18 11:26:43;;;;;;;1.53;1.40;;;11.00;99.90;;;;;;5050782;28;20178;-69
2022/02/18 11:29:10;;;;;;;4.40;1.90;;;11.10;99.90;;;;;;5042240;28;20831;-69
2022/02/18 11:31:45;;;;;;;4.77;2.27;;;11.10;99.90;;;;;;5050540;28;20512;-68
2022/02/18 11:34:49;;;;;;;2.87;1.63;;;11.10;99.90;;;;;;5050938;28;20473;-69
2022/02/18 11:38:02;;;;;;;2.10;1.30;;;11.10;99.90;;;;;;5051401;28;20408;-69
2022/02/18 11:40:48;;;;;;;2.13;1.33;;;11.10;99.90;;;;;;4969176;28;20572;-68
2022/02/18 11:43:33;;;;;;;4.00;1.33;;;11.20;99.90;;;;;;5039501;28;20474;-70
2022/02/18 11:46:01;;;;;;;2.35;1.60;;;11.30;99.90;;;;;;5049752;28;20447;-69
2022/02/18 11:48:45;;;;;;;3.73;1.40;;;11.20;99.90;;;;;;5050417;28;20189;-68
2022/02/18 11:51:14;;;;;;;1.27;1.17;;;11.20;99.90;;;;;;5050583;28;20478;-70
2022/02/18 11:53:46;;;;;;;1.67;1.50;;;11.20;99.90;;;;;;5050251;28;20424;-70
2022/02/18 11:56:14;;;;;;;1.40;1.30;;;11.20;99.90;;;;;;5050386;28;20452;-70
2022/02/18 11:58:49;;;;;;;2.47;1.80;;;11.20;99.90;;;;;;5051418;28;20500;-70
2022/02/18 12:01:14;;;;;;;2.13;1.53;;;11.20;99.90;;;;;;5050322;28;20412;-70
2022/02/18 12:03:40;;;;;;;1.50;1.40;;;11.30;99.90;;;;;;5050585;28;20938;-70
2022/02/18 12:06:13;;;;;;;1.53;1.17;;;11.30;99.90;;;;;;5053232;28;20232;-70
2022/02/18 12:08:50;;;;;;;1.40;1.30;;;11.30;99.90;;;;;;5055110;28;20201;-72
2022/02/18 12:11:18;;;;;;;2.47;1.47;;;11.30;99.90;;;;;;5047276;28;21014;-70
2022/02/18 12:13:57;;;;;;;2.37;1.10;;;11.40;99.90;;;;;;5054998;28;20824;-69
2022/02/18 12:16:24;;;;;;;1.47;1.10;;;11.50;99.90;;;;;;5055340;28;20861;-70
2022/02/18 12:19:23;;;;;;;1.50;1.00;;;11.40;99.90;;;;;;5043126;28;20420;-69
2022/02/18 12:21:55;;;;;;;2.03;1.10;;;11.40;99.90;;;;;;5054648;28;20444;-69
2022/02/18 12:24:33;;;;;;;1.30;1.13;;;11.50;99.90;;;;;;5054952;28;20408;-70
2022/02/18 12:27:23;;;;;;;1.57;1.17;;;11.50;99.90;;;;;;5054878;28;20402;-70
2022/02/18 12:29:50;;;;;;;1.90;1.00;;;11.50;99.90;;;;;;5054300;28;20857;-70
2022/02/18 12:32:16;;;;;;;1.33;1.13;;;11.60;99.90;;;;;;5054393;28;20433;-69
2022/02/18 12:34:43;;;;;;;1.20;1.10;;;11.60;99.90;;;;;;5054785;28;21024;-70
2022/02/18 12:37:12;;;;;;;1.70;1.13;;;11.60;99.90;;;;;;5054886;28;20181;-70
2022/02/18 12:39:42;;;;;;;3.80;1.10;;;11.60;99.90;;;;;;5054854;28;20482;-70
2022/02/18 12:42:10;;;;;;;1.10;1.00;;;11.70;99.90;;;;;;5054915;28;20424;-69
2022/02/18 12:44:47;;;;;;;1.10;0.90;;;11.60;99.90;;;;;;5054740;28;20496;-70
2022/02/18 12:47:20;;;;;;;0.90;0.83;;;11.70;99.90;;;;;;5054368;28;20408;-69
2022/02/18 12:49:46;;;;;;;0.70;0.70;;;11.80;99.90;;;;;;5052696;28;20431;-70